sensor_id;sensor_type;location;lat;lon;timestamp;P1;durP1;ratioP1;P2;durP2;ratioP2
12480;SDS011;6305;48.398;11.762;2022-08-21T00:02:26;21.60;;;10.35;;
12480;SDS011;6305;48.398;11.762;2022-08-21T00:04:55;19.52;;;9.90;;
12480;SDS011;6305;48.398;11.762;2022-08-21T00:07:22;20.35;;;10.13;;
12480;SDS011;6305;48.398;11.762;2022-08-21T00:09:49;21.40;;;9.98;;
12480;SDS011;6305;48.398;11.762;2022-08-21T00:12:15;18.67;;;10.13;;
12480;SDS011;6305;48.398;11.762;2022-08-21T00:14:42;19.92;;;10.05;;
12480;SDS011;6305;48.398;11.762;2022-08-21T00:17:09;15.93;;;9.40;;
12480;SDS011;6305;48.398;11.762;2022-08-21T00:19:36;19.73;;;9.43;;
12480;SDS011;6305;48.398;11.762;2022-08-21T00:22:04;16.08;;;9.18;;
12480;SDS011;6305;48.398;11.762;2022-08-21T00:24:30;16.88;;;9.13;;
12480;SDS011;6305;48.398;11.762;2022-08-21T00:26:57;16.88;;;8.70;;
12480;SDS011;6305;48.398;11.762;2022-08-21T00:29:24;17.85;;;8.75;;
12480;SDS011;6305;48.398;11.762;2022-08-21T00:31:51;14.88;;;9.13;;
12480;SDS011;6305;48.398;11.762;2022-08-21T00:34:18;16.00;;;8.77;;
12480;SDS011;6305;48.398;11.762;2022-08-21T00:36:45;16.02;;;8.80;;
12480;SDS011;6305;48.398;11.762;2022-08-21T00:39:13;17.35;;;8.75;;
12480;SDS011;6305;48.398;11.762;2022-08-21T00:41:41;15.05;;;8.68;;
12480;SDS011;6305;48.398;11.762;2022-08-21T00:44:10;17.48;;;9.68;;
12480;SDS011;6305;48.398;11.762;2022-08-21T00:46:39;17.80;;;9.15;;
12480;SDS011;6305;48.398;11.762;2022-08-21T00:49:07;17.20;;;9.02;;
12480;SDS011;6305;48.398;11.762;2022-08-21T00:51:38;18.13;;;8.88;;
12480;SDS011;6305;48.398;11.762;2022-08-21T00:54:08;16.00;;;9.05;;
12480;SDS011;6305;48.398;11.762;2022-08-21T00:56:37;16.52;;;8.80;;
12480;SDS011;6305;48.398;11.762;2022-08-21T00:59:05;17.23;;;9.70;;
12480;SDS011;6305;48.398;11.762;2022-08-21T01:01:32;15.27;;;8.48;;
12480;SDS011;6305;48.398;11.762;2022-08-21T01:03:58;15.23;;;8.95;;
12480;SDS011;6305;48.398;11.762;2022-08-21T01:06:26;15.98;;;9.73;;
12480;SDS011;6305;48.398;11.762;2022-08-21T01:08:53;17.85;;;8.98;;
12480;SDS011;6305;48.398;11.762;2022-08-21T01:11:20;14.05;;;9.20;;
12480;SDS011;6305;48.398;11.762;2022-08-21T01:13:48;16.02;;;8.48;;
12480;SDS011;6305;48.398;11.762;2022-08-21T01:16:17;16.23;;;9.13;;
12480;SDS011;6305;48.398;11.762;2022-08-21T01:18:46;16.02;;;9.55;;
12480;SDS011;6305;48.398;11.762;2022-08-21T01:21:15;16.98;;;9.65;;
12480;SDS011;6305;48.398;11.762;2022-08-21T01:23:44;18.27;;;9.57;;
12480;SDS011;6305;48.398;11.762;2022-08-21T01:26:14;17.20;;;9.90;;
12480;SDS011;6305;48.398;11.762;2022-08-21T01:28:46;17.10;;;10.00;;
12480;SDS011;6305;48.398;11.762;2022-08-21T01:31:17;17.88;;;10.00;;
12480;SDS011;6305;48.398;11.762;2022-08-21T01:33:48;18.60;;;9.70;;
12480;SDS011;6305;48.398;11.762;2022-08-21T01:36:16;21.30;;;9.95;;
12480;SDS011;6305;48.398;11.762;2022-08-21T01:38:42;19.92;;;10.15;;
12480;SDS011;6305;48.398;11.762;2022-08-21T01:41:09;18.65;;;9.90;;
12480;SDS011;6305;48.398;11.762;2022-08-21T01:43:36;20.05;;;9.95;;
12480;SDS011;6305;48.398;11.762;2022-08-21T01:46:03;17.77;;;9.90;;
12480;SDS011;6305;48.398;11.762;2022-08-21T01:48:30;17.80;;;9.68;;
12480;SDS011;6305;48.398;11.762;2022-08-21T01:50:56;17.05;;;9.63;;
12480;SDS011;6305;48.398;11.762;2022-08-21T01:53:25;20.85;;;10.27;;
12480;SDS011;6305;48.398;11.762;2022-08-21T01:55:51;19.13;;;10.38;;
12480;SDS011;6305;48.398;11.762;2022-08-21T01:58:18;20.95;;;10.43;;
12480;SDS011;6305;48.398;11.762;2022-08-21T02:00:45;18.85;;;10.07;;
12480;SDS011;6305;48.398;11.762;2022-08-21T02:03:12;19.92;;;10.48;;
12480;SDS011;6305;48.398;11.762;2022-08-21T02:05:39;19.00;;;10.35;;
12480;SDS011;6305;48.398;11.762;2022-08-21T02:08:06;19.23;;;10.88;;
12480;SDS011;6305;48.398;11.762;2022-08-21T02:10:34;17.80;;;10.18;;
12480;SDS011;6305;48.398;11.762;2022-08-21T02:13:01;19.95;;;10.35;;
12480;SDS011;6305;48.398;11.762;2022-08-21T02:15:28;19.20;;;10.38;;
12480;SDS011;6305;48.398;11.762;2022-08-21T02:17:57;19.58;;;10.35;;
12480;SDS011;6305;48.398;11.762;2022-08-21T02:20:27;19.35;;;10.52;;
12480;SDS011;6305;48.398;11.762;2022-08-21T02:22:56;20.67;;;10.45;;
12480;SDS011;6305;48.398;11.762;2022-08-21T02:25:24;18.80;;;9.80;;
12480;SDS011;6305;48.398;11.762;2022-08-21T02:27:53;18.73;;;10.43;;
12480;SDS011;6305;48.398;11.762;2022-08-21T02:30:23;19.95;;;10.50;;
12480;SDS011;6305;48.398;11.762;2022-08-21T02:32:50;19.20;;;10.10;;
12480;SDS011;6305;48.398;11.762;2022-08-21T02:35:17;19.63;;;10.52;;
12480;SDS011;6305;48.398;11.762;2022-08-21T02:37:46;21.65;;;10.80;;
12480;SDS011;6305;48.398;11.762;2022-08-21T02:40:14;20.63;;;10.20;;
12480;SDS011;6305;48.398;11.762;2022-08-21T02:42:43;21.40;;;11.07;;
12480;SDS011;6305;48.398;11.762;2022-08-21T02:45:13;21.75;;;10.70;;
12480;SDS011;6305;48.398;11.762;2022-08-21T02:47:42;21.40;;;10.85;;
12480;SDS011;6305;48.398;11.762;2022-08-21T02:50:13;22.65;;;10.45;;
12480;SDS011;6305;48.398;11.762;2022-08-21T02:52:43;21.15;;;11.45;;
12480;SDS011;6305;48.398;11.762;2022-08-21T02:55:10;20.50;;;10.93;;
12480;SDS011;6305;48.398;11.762;2022-08-21T02:57:37;24.95;;;11.32;;
12480;SDS011;6305;48.398;11.762;2022-08-21T03:00:04;22.35;;;10.88;;
12480;SDS011;6305;48.398;11.762;2022-08-21T03:02:33;21.70;;;11.13;;
12480;SDS011;6305;48.398;11.762;2022-08-21T03:05:00;25.10;;;11.38;;
12480;SDS011;6305;48.398;11.762;2022-08-21T03:07:27;22.02;;;11.25;;
12480;SDS011;6305;48.398;11.762;2022-08-21T03:09:54;22.42;;;11.23;;
12480;SDS011;6305;48.398;11.762;2022-08-21T03:12:20;28.00;;;11.73;;
12480;SDS011;6305;48.398;11.762;2022-08-21T03:14:47;21.58;;;11.57;;
12480;SDS011;6305;48.398;11.762;2022-08-21T03:17:14;22.00;;;11.93;;
12480;SDS011;6305;48.398;11.762;2022-08-21T03:19:42;23.63;;;12.43;;
12480;SDS011;6305;48.398;11.762;2022-08-21T03:22:08;25.00;;;12.15;;
12480;SDS011;6305;48.398;11.762;2022-08-21T03:24:35;25.38;;;12.02;;
12480;SDS011;6305;48.398;11.762;2022-08-21T03:27:02;27.30;;;11.82;;
12480;SDS011;6305;48.398;11.762;2022-08-21T03:29:29;22.48;;;12.52;;
12480;SDS011;6305;48.398;11.762;2022-08-21T03:31:56;24.17;;;12.02;;
12480;SDS011;6305;48.398;11.762;2022-08-21T03:34:22;24.65;;;12.38;;
12480;SDS011;6305;48.398;11.762;2022-08-21T03:36:51;23.98;;;12.45;;
12480;SDS011;6305;48.398;11.762;2022-08-21T03:39:17;25.73;;;12.05;;
12480;SDS011;6305;48.398;11.762;2022-08-21T03:41:44;22.20;;;12.02;;
12480;SDS011;6305;48.398;11.762;2022-08-21T03:44:12;26.65;;;13.10;;
12480;SDS011;6305;48.398;11.762;2022-08-21T03:46:39;27.17;;;12.98;;
12480;SDS011;6305;48.398;11.762;2022-08-21T03:49:06;23.33;;;12.18;;
12480;SDS011;6305;48.398;11.762;2022-08-21T03:51:32;25.38;;;12.43;;
12480;SDS011;6305;48.398;11.762;2022-08-21T03:54:01;25.00;;;12.38;;
12480;SDS011;6305;48.398;11.762;2022-08-21T03:56:28;24.10;;;11.85;;
12480;SDS011;6305;48.398;11.762;2022-08-21T03:58:55;27.10;;;13.68;;
12480;SDS011;6305;48.398;11.762;2022-08-21T04:01:22;27.63;;;12.40;;
12480;SDS011;6305;48.398;11.762;2022-08-21T04:03:49;25.48;;;11.75;;
12480;SDS011;6305;48.398;11.762;2022-08-21T04:06:16;27.35;;;12.35;;
12480;SDS011;6305;48.398;11.762;2022-08-21T04:08:42;26.02;;;13.48;;
12480;SDS011;6305;48.398;11.762;2022-08-21T04:11:11;24.25;;;11.13;;
12480;SDS011;6305;48.398;11.762;2022-08-21T04:13:37;27.52;;;12.57;;
12480;SDS011;6305;48.398;11.762;2022-08-21T04:16:05;26.60;;;13.38;;
12480;SDS011;6305;48.398;11.762;2022-08-21T04:18:33;29.05;;;13.10;;
12480;SDS011;6305;48.398;11.762;2022-08-21T04:20:59;31.60;;;14.18;;
12480;SDS011;6305;48.398;11.762;2022-08-21T04:23:28;28.83;;;13.32;;
12480;SDS011;6305;48.398;11.762;2022-08-21T04:25:55;29.92;;;13.18;;
12480;SDS011;6305;48.398;11.762;2022-08-21T04:28:24;32.47;;;14.48;;
12480;SDS011;6305;48.398;11.762;2022-08-21T04:30:52;31.90;;;14.13;;
12480;SDS011;6305;48.398;11.762;2022-08-21T04:33:20;29.33;;;13.75;;
12480;SDS011;6305;48.398;11.762;2022-08-21T04:35:47;28.02;;;13.48;;
12480;SDS011;6305;48.398;11.762;2022-08-21T04:38:15;28.38;;;13.43;;
12480;SDS011;6305;48.398;11.762;2022-08-21T04:40:42;30.15;;;14.20;;
12480;SDS011;6305;48.398;11.762;2022-08-21T04:43:09;33.10;;;14.10;;
12480;SDS011;6305;48.398;11.762;2022-08-21T04:45:39;31.98;;;13.93;;
12480;SDS011;6305;48.398;11.762;2022-08-21T04:48:12;29.60;;;13.48;;
12480;SDS011;6305;48.398;11.762;2022-08-21T04:50:41;31.20;;;13.45;;
12480;SDS011;6305;48.398;11.762;2022-08-21T04:53:13;25.23;;;12.73;;
12480;SDS011;6305;48.398;11.762;2022-08-21T04:55:42;25.08;;;12.98;;
12480;SDS011;6305;48.398;11.762;2022-08-21T04:58:10;30.75;;;13.40;;
12480;SDS011;6305;48.398;11.762;2022-08-21T05:00:42;29.92;;;13.02;;
12480;SDS011;6305;48.398;11.762;2022-08-21T05:03:10;27.90;;;12.55;;
12480;SDS011;6305;48.398;11.762;2022-08-21T05:05:38;27.45;;;13.85;;
12480;SDS011;6305;48.398;11.762;2022-08-21T05:08:05;28.38;;;14.02;;
12480;SDS011;6305;48.398;11.762;2022-08-21T05:10:35;26.80;;;13.75;;
12480;SDS011;6305;48.398;11.762;2022-08-21T05:13:02;30.15;;;14.25;;
12480;SDS011;6305;48.398;11.762;2022-08-21T05:15:30;31.13;;;14.77;;
12480;SDS011;6305;48.398;11.762;2022-08-21T05:17:58;30.08;;;15.00;;
12480;SDS011;6305;48.398;11.762;2022-08-21T05:20:25;31.00;;;14.77;;
12480;SDS011;6305;48.398;11.762;2022-08-21T05:22:51;26.98;;;13.50;;
12480;SDS011;6305;48.398;11.762;2022-08-21T05:25:18;32.50;;;15.13;;
12480;SDS011;6305;48.398;11.762;2022-08-21T05:27:45;29.88;;;14.05;;
12480;SDS011;6305;48.398;11.762;2022-08-21T05:30:12;26.63;;;14.23;;
12480;SDS011;6305;48.398;11.762;2022-08-21T05:32:39;28.63;;;14.02;;
12480;SDS011;6305;48.398;11.762;2022-08-21T05:35:07;28.67;;;13.75;;
12480;SDS011;6305;48.398;11.762;2022-08-21T05:37:36;26.30;;;12.93;;
12480;SDS011;6305;48.398;11.762;2022-08-21T05:40:03;24.52;;;12.52;;
12480;SDS011;6305;48.398;11.762;2022-08-21T05:42:31;26.27;;;12.55;;
12480;SDS011;6305;48.398;11.762;2022-08-21T05:44:58;19.25;;;10.82;;
12480;SDS011;6305;48.398;11.762;2022-08-21T05:47:25;20.20;;;10.40;;
12480;SDS011;6305;48.398;11.762;2022-08-21T05:49:51;16.67;;;9.43;;
12480;SDS011;6305;48.398;11.762;2022-08-21T05:52:20;12.15;;;8.18;;
12480;SDS011;6305;48.398;11.762;2022-08-21T05:54:47;10.02;;;6.72;;
12480;SDS011;6305;48.398;11.762;2022-08-21T05:57:14;8.98;;;5.93;;
12480;SDS011;6305;48.398;11.762;2022-08-21T05:59:41;8.65;;;5.68;;
12480;SDS011;6305;48.398;11.762;2022-08-21T06:02:08;5.25;;;4.18;;
12480;SDS011;6305;48.398;11.762;2022-08-21T06:04:36;6.97;;;4.35;;
12480;SDS011;6305;48.398;11.762;2022-08-21T06:07:03;5.53;;;3.40;;
12480;SDS011;6305;48.398;11.762;2022-08-21T06:09:32;3.22;;;2.92;;
12480;SDS011;6305;48.398;11.762;2022-08-21T06:12:02;3.33;;;3.03;;
12480;SDS011;6305;48.398;11.762;2022-08-21T06:14:29;4.28;;;2.97;;
12480;SDS011;6305;48.398;11.762;2022-08-21T06:17:00;3.78;;;2.97;;
12480;SDS011;6305;48.398;11.762;2022-08-21T06:19:28;2.75;;;2.55;;
12480;SDS011;6305;48.398;11.762;2022-08-21T06:21:55;3.00;;;2.65;;
12480;SDS011;6305;48.398;11.762;2022-08-21T06:24:21;2.75;;;2.42;;
12480;SDS011;6305;48.398;11.762;2022-08-21T06:26:50;2.60;;;2.40;;
12480;SDS011;6305;48.398;11.762;2022-08-21T06:29:17;2.50;;;2.30;;
12480;SDS011;6305;48.398;11.762;2022-08-21T06:31:44;2.35;;;2.15;;
12480;SDS011;6305;48.398;11.762;2022-08-21T06:34:12;2.63;;;2.28;;
12480;SDS011;6305;48.398;11.762;2022-08-21T06:36:39;3.20;;;2.30;;
12480;SDS011;6305;48.398;11.762;2022-08-21T06:39:06;2.67;;;2.33;;
12480;SDS011;6305;48.398;11.762;2022-08-21T06:41:33;2.40;;;2.20;;
12480;SDS011;6305;48.398;11.762;2022-08-21T06:44:01;2.53;;;2.33;;
12480;SDS011;6305;48.398;11.762;2022-08-21T06:46:28;2.42;;;2.22;;
12480;SDS011;6305;48.398;11.762;2022-08-21T06:48:56;2.30;;;2.10;;
12480;SDS011;6305;48.398;11.762;2022-08-21T06:51:24;3.30;;;2.25;;
12480;SDS011;6305;48.398;11.762;2022-08-21T06:53:51;2.10;;;1.90;;
12480;SDS011;6305;48.398;11.762;2022-08-21T06:56:18;2.42;;;2.22;;
12480;SDS011;6305;48.398;11.762;2022-08-21T06:58:45;3.17;;;2.30;;
12480;SDS011;6305;48.398;11.762;2022-08-21T07:01:14;4.18;;;2.78;;
12480;SDS011;6305;48.398;11.762;2022-08-21T07:03:42;3.25;;;2.10;;
12480;SDS011;6305;48.398;11.762;2022-08-21T07:06:10;2.65;;;2.22;;
12480;SDS011;6305;48.398;11.762;2022-08-21T07:08:37;2.50;;;2.30;;
12480;SDS011;6305;48.398;11.762;2022-08-21T07:11:06;2.53;;;2.20;;
12480;SDS011;6305;48.398;11.762;2022-08-21T07:13:42;2.78;;;2.50;;
12480;SDS011;6305;48.398;11.762;2022-08-21T07:16:09;2.97;;;2.13;;
12480;SDS011;6305;48.398;11.762;2022-08-21T07:18:37;3.30;;;2.30;;
12480;SDS011;6305;48.398;11.762;2022-08-21T07:21:05;3.70;;;2.42;;
12480;SDS011;6305;48.398;11.762;2022-08-21T07:23:34;2.72;;;2.42;;
12480;SDS011;6305;48.398;11.762;2022-08-21T07:26:03;3.25;;;2.28;;
12480;SDS011;6305;48.398;11.762;2022-08-21T07:28:30;3.67;;;2.25;;
12480;SDS011;6305;48.398;11.762;2022-08-21T07:30:58;2.38;;;2.17;;
12480;SDS011;6305;48.398;11.762;2022-08-21T07:33:26;3.00;;;2.80;;
12480;SDS011;6305;48.398;11.762;2022-08-21T07:35:56;2.70;;;2.50;;
12480;SDS011;6305;48.398;11.762;2022-08-21T07:38:23;3.30;;;2.90;;
12480;SDS011;6305;48.398;11.762;2022-08-21T07:40:50;4.25;;;3.00;;
12480;SDS011;6305;48.398;11.762;2022-08-21T07:43:18;3.22;;;2.92;;
12480;SDS011;6305;48.398;11.762;2022-08-21T07:45:46;2.80;;;2.60;;
12480;SDS011;6305;48.398;11.762;2022-08-21T07:48:14;3.03;;;2.72;;
12480;SDS011;6305;48.398;11.762;2022-08-21T07:50:41;2.92;;;2.50;;
12480;SDS011;6305;48.398;11.762;2022-08-21T07:53:09;4.65;;;2.90;;
12480;SDS011;6305;48.398;11.762;2022-08-21T07:55:36;5.05;;;2.83;;
12480;SDS011;6305;48.398;11.762;2022-08-21T07:58:03;4.10;;;3.08;;
12480;SDS011;6305;48.398;11.762;2022-08-21T08:00:30;3.42;;;2.67;;
12480;SDS011;6305;48.398;11.762;2022-08-21T08:02:56;4.28;;;2.85;;
12480;SDS011;6305;48.398;11.762;2022-08-21T08:05:25;3.03;;;2.72;;
12480;SDS011;6305;48.398;11.762;2022-08-21T08:07:53;2.95;;;2.72;;
12480;SDS011;6305;48.398;11.762;2022-08-21T08:10:22;3.33;;;2.70;;
12480;SDS011;6305;48.398;11.762;2022-08-21T08:12:50;3.80;;;3.35;;
12480;SDS011;6305;48.398;11.762;2022-08-21T08:15:21;4.20;;;3.15;;
12480;SDS011;6305;48.398;11.762;2022-08-21T08:17:49;3.20;;;2.90;;
12480;SDS011;6305;48.398;11.762;2022-08-21T08:20:16;4.60;;;3.08;;
12480;SDS011;6305;48.398;11.762;2022-08-21T08:22:45;3.42;;;3.13;;
12480;SDS011;6305;48.398;11.762;2022-08-21T08:25:12;5.78;;;3.13;;
12480;SDS011;6305;48.398;11.762;2022-08-21T08:27:42;5.22;;;3.35;;
12480;SDS011;6305;48.398;11.762;2022-08-21T08:30:10;3.60;;;3.30;;
12480;SDS011;6305;48.398;11.762;2022-08-21T08:32:38;3.20;;;2.90;;
12480;SDS011;6305;48.398;11.762;2022-08-21T08:35:06;3.33;;;3.03;;
12480;SDS011;6305;48.398;11.762;2022-08-21T08:37:34;4.75;;;3.13;;
12480;SDS011;6305;48.398;11.762;2022-08-21T08:40:03;3.58;;;3.22;;
12480;SDS011;6305;48.398;11.762;2022-08-21T08:42:31;7.60;;;3.45;;
12480;SDS011;6305;48.398;11.762;2022-08-21T08:45:03;3.25;;;2.97;;
12480;SDS011;6305;48.398;11.762;2022-08-21T08:47:32;3.60;;;3.30;;
12480;SDS011;6305;48.398;11.762;2022-08-21T08:50:03;4.28;;;3.88;;
12480;SDS011;6305;48.398;11.762;2022-08-21T08:52:32;4.15;;;3.50;;
12480;SDS011;6305;48.398;11.762;2022-08-21T08:55:04;3.88;;;3.53;;
12480;SDS011;6305;48.398;11.762;2022-08-21T08:57:33;3.65;;;3.35;;
12480;SDS011;6305;48.398;11.762;2022-08-21T09:00:04;3.83;;;3.53;;
12480;SDS011;6305;48.398;11.762;2022-08-21T09:02:34;3.78;;;3.38;;
12480;SDS011;6305;48.398;11.762;2022-08-21T09:05:01;4.20;;;3.80;;
12480;SDS011;6305;48.398;11.762;2022-08-21T09:07:33;3.67;;;3.38;;
12480;SDS011;6305;48.398;11.762;2022-08-21T09:10:13;4.45;;;3.47;;
12480;SDS011;6305;48.398;11.762;2022-08-21T09:12:46;3.92;;;3.08;;
12480;SDS011;6305;48.398;11.762;2022-08-21T09:15:25;4.18;;;3.08;;
12480;SDS011;6305;48.398;11.762;2022-08-21T09:20:54;4.22;;;3.35;;
12480;SDS011;6305;48.398;11.762;2022-08-21T09:23:36;4.10;;;3.38;;
12480;SDS011;6305;48.398;11.762;2022-08-21T09:26:11;4.00;;;3.70;;
12480;SDS011;6305;48.398;11.762;2022-08-21T09:28:39;4.32;;;3.40;;
12480;SDS011;6305;48.398;11.762;2022-08-21T09:31:14;4.55;;;3.42;;
12480;SDS011;6305;48.398;11.762;2022-08-21T09:33:45;3.75;;;2.75;;
12480;SDS011;6305;48.398;11.762;2022-08-21T09:36:12;4.47;;;3.00;;
12480;SDS011;6305;48.398;11.762;2022-08-21T09:38:52;3.28;;;2.95;;
12480;SDS011;6305;48.398;11.762;2022-08-21T09:41:25;3.20;;;2.90;;
12480;SDS011;6305;48.398;11.762;2022-08-21T09:43:53;3.30;;;2.75;;
12480;SDS011;6305;48.398;11.762;2022-08-21T09:46:22;4.40;;;3.60;;
12480;SDS011;6305;48.398;11.762;2022-08-21T09:48:51;3.10;;;2.80;;
12480;SDS011;6305;48.398;11.762;2022-08-21T09:51:19;3.40;;;3.10;;
12480;SDS011;6305;48.398;11.762;2022-08-21T09:53:49;3.53;;;3.08;;
12480;SDS011;6305;48.398;11.762;2022-08-21T09:56:21;4.45;;;2.88;;
12480;SDS011;6305;48.398;11.762;2022-08-21T09:59:14;2.65;;;2.45;;
12480;SDS011;6305;48.398;11.762;2022-08-21T10:01:45;2.63;;;2.42;;
12480;SDS011;6305;48.398;11.762;2022-08-21T10:04:13;4.18;;;3.20;;
12480;SDS011;6305;48.398;11.762;2022-08-21T10:06:40;3.00;;;2.50;;
12480;SDS011;6305;48.398;11.762;2022-08-21T10:09:09;3.00;;;2.60;;
12480;SDS011;6305;48.398;11.762;2022-08-21T10:11:36;3.17;;;2.60;;
12480;SDS011;6305;48.398;11.762;2022-08-21T10:14:07;3.28;;;2.97;;
12480;SDS011;6305;48.398;11.762;2022-08-21T10:16:44;3.17;;;2.80;;
12480;SDS011;6305;48.398;11.762;2022-08-21T10:19:21;3.63;;;3.33;;
12480;SDS011;6305;48.398;11.762;2022-08-21T10:21:59;3.55;;;3.25;;
12480;SDS011;6305;48.398;11.762;2022-08-21T10:24:33;3.22;;;2.90;;
12480;SDS011;6305;48.398;11.762;2022-08-21T10:27:11;3.08;;;2.78;;
12480;SDS011;6305;48.398;11.762;2022-08-21T10:29:45;3.50;;;3.10;;
12480;SDS011;6305;48.398;11.762;2022-08-21T10:32:24;3.17;;;2.90;;
12480;SDS011;6305;48.398;11.762;2022-08-21T10:35:13;3.83;;;2.70;;
12480;SDS011;6305;48.398;11.762;2022-08-21T10:37:46;4.15;;;3.00;;
12480;SDS011;6305;48.398;11.762;2022-08-21T10:40:24;2.88;;;2.45;;
12480;SDS011;6305;48.398;11.762;2022-08-21T10:43:00;3.20;;;2.85;;
12480;SDS011;6305;48.398;11.762;2022-08-21T10:45:37;2.95;;;2.75;;
12480;SDS011;6305;48.398;11.762;2022-08-21T10:48:16;3.53;;;2.90;;
12480;SDS011;6305;48.398;11.762;2022-08-21T10:50:52;3.33;;;2.95;;
12480;SDS011;6305;48.398;11.762;2022-08-21T10:53:28;3.20;;;2.85;;
12480;SDS011;6305;48.398;11.762;2022-08-21T10:56:05;4.03;;;2.85;;
12480;SDS011;6305;48.398;11.762;2022-08-21T10:58:40;3.55;;;3.22;;
12480;SDS011;6305;48.398;11.762;2022-08-21T11:01:12;3.85;;;3.50;;
12480;SDS011;6305;48.398;11.762;2022-08-21T11:03:45;3.92;;;3.20;;
12480;SDS011;6305;48.398;11.762;2022-08-21T11:06:18;4.15;;;2.97;;
12480;SDS011;6305;48.398;11.762;2022-08-21T11:08:49;3.47;;;3.17;;
12480;SDS011;6305;48.398;11.762;2022-08-21T11:11:20;3.15;;;2.80;;
12480;SDS011;6305;48.398;11.762;2022-08-21T11:13:51;3.42;;;3.13;;
12480;SDS011;6305;48.398;11.762;2022-08-21T11:16:22;4.13;;;2.55;;
12480;SDS011;6305;48.398;11.762;2022-08-21T11:18:58;2.83;;;2.63;;
12480;SDS011;6305;48.398;11.762;2022-08-21T11:21:35;2.88;;;2.65;;
12480;SDS011;6305;48.398;11.762;2022-08-21T11:24:12;2.80;;;2.60;;
12480;SDS011;6305;48.398;11.762;2022-08-21T11:26:51;3.13;;;2.80;;
12480;SDS011;6305;48.398;11.762;2022-08-21T11:29:24;2.90;;;2.70;;
12480;SDS011;6305;48.398;11.762;2022-08-21T11:32:20;3.40;;;3.10;;
12480;SDS011;6305;48.398;11.762;2022-08-21T11:35:05;3.35;;;2.70;;
12480;SDS011;6305;48.398;11.762;2022-08-21T11:37:42;3.40;;;3.10;;
12480;SDS011;6305;48.398;11.762;2022-08-21T11:40:19;2.75;;;2.55;;
12480;SDS011;6305;48.398;11.762;2022-08-21T11:43:03;2.78;;;2.50;;
12480;SDS011;6305;48.398;11.762;2022-08-21T11:45:38;2.90;;;2.70;;
12480;SDS011;6305;48.398;11.762;2022-08-21T11:48:16;2.55;;;2.35;;
12480;SDS011;6305;48.398;11.762;2022-08-21T11:50:59;2.83;;;2.63;;
12480;SDS011;6305;48.398;11.762;2022-08-21T11:53:30;3.45;;;2.72;;
12480;SDS011;6305;48.398;11.762;2022-08-21T11:56:03;3.50;;;2.70;;
12480;SDS011;6305;48.398;11.762;2022-08-21T11:58:36;3.03;;;2.63;;
12480;SDS011;6305;48.398;11.762;2022-08-21T12:01:07;3.00;;;2.72;;
12480;SDS011;6305;48.398;11.762;2022-08-21T12:03:37;2.95;;;2.65;;
12480;SDS011;6305;48.398;11.762;2022-08-21T12:06:09;2.88;;;2.55;;
12480;SDS011;6305;48.398;11.762;2022-08-21T12:08:38;3.15;;;2.40;;
12480;SDS011;6305;48.398;11.762;2022-08-21T12:11:07;2.40;;;2.20;;
12480;SDS011;6305;48.398;11.762;2022-08-21T12:13:36;2.63;;;2.20;;
12480;SDS011;6305;48.398;11.762;2022-08-21T12:16:05;2.65;;;2.45;;
12480;SDS011;6305;48.398;11.762;2022-08-21T12:18:33;3.45;;;2.75;;
12480;SDS011;6305;48.398;11.762;2022-08-21T12:21:04;2.13;;;2.03;;
12480;SDS011;6305;48.398;11.762;2022-08-21T12:23:45;2.85;;;2.33;;
12480;SDS011;6305;48.398;11.762;2022-08-21T12:26:17;2.60;;;2.40;;
12480;SDS011;6305;48.398;11.762;2022-08-21T12:28:50;3.78;;;2.30;;
12480;SDS011;6305;48.398;11.762;2022-08-21T12:31:18;2.55;;;2.30;;
12480;SDS011;6305;48.398;11.762;2022-08-21T12:33:49;2.13;;;2.00;;
12480;SDS011;6305;48.398;11.762;2022-08-21T12:36:22;2.42;;;2.22;;
12480;SDS011;6305;48.398;11.762;2022-08-21T12:38:53;2.05;;;1.88;;
12480;SDS011;6305;48.398;11.762;2022-08-21T12:41:24;2.00;;;1.90;;
12480;SDS011;6305;48.398;11.762;2022-08-21T12:43:56;2.75;;;2.10;;
12480;SDS011;6305;48.398;11.762;2022-08-21T12:46:27;3.22;;;2.40;;
12480;SDS011;6305;48.398;11.762;2022-08-21T12:49:00;2.53;;;2.33;;
12480;SDS011;6305;48.398;11.762;2022-08-21T12:51:34;2.20;;;2.00;;
12480;SDS011;6305;48.398;11.762;2022-08-21T12:54:09;2.33;;;2.03;;
12480;SDS011;6305;48.398;11.762;2022-08-21T12:56:36;3.63;;;2.20;;
12480;SDS011;6305;48.398;11.762;2022-08-21T12:59:05;3.20;;;2.03;;
12480;SDS011;6305;48.398;11.762;2022-08-21T13:01:37;2.35;;;1.92;;
12480;SDS011;6305;48.398;11.762;2022-08-21T13:04:15;1.77;;;1.67;;
12480;SDS011;6305;48.398;11.762;2022-08-21T13:06:46;3.97;;;2.20;;
12480;SDS011;6305;48.398;11.762;2022-08-21T13:09:17;2.25;;;2.05;;
12480;SDS011;6305;48.398;11.762;2022-08-21T13:11:48;2.13;;;1.92;;
12480;SDS011;6305;48.398;11.762;2022-08-21T13:14:17;2.28;;;2.13;;
12480;SDS011;6305;48.398;11.762;2022-08-21T13:16:52;2.10;;;2.00;;
12480;SDS011;6305;48.398;11.762;2022-08-21T13:19:19;2.65;;;2.10;;
12480;SDS011;6305;48.398;11.762;2022-08-21T13:21:47;3.60;;;2.25;;
12480;SDS011;6305;48.398;11.762;2022-08-21T13:24:15;2.63;;;2.20;;
12480;SDS011;6305;48.398;11.762;2022-08-21T13:26:43;2.72;;;2.20;;
12480;SDS011;6305;48.398;11.762;2022-08-21T13:29:11;3.45;;;2.35;;
12480;SDS011;6305;48.398;11.762;2022-08-21T13:31:42;5.20;;;2.25;;
12480;SDS011;6305;48.398;11.762;2022-08-21T13:34:13;2.58;;;2.33;;
12480;SDS011;6305;48.398;11.762;2022-08-21T13:36:42;3.88;;;2.38;;
12480;SDS011;6305;48.398;11.762;2022-08-21T13:39:11;2.20;;;2.00;;
12480;SDS011;6305;48.398;11.762;2022-08-21T13:41:43;2.53;;;2.25;;
12480;SDS011;6305;48.398;11.762;2022-08-21T13:44:17;2.80;;;2.35;;
12480;SDS011;6305;48.398;11.762;2022-08-21T13:46:46;2.78;;;2.45;;
12480;SDS011;6305;48.398;11.762;2022-08-21T13:49:16;2.25;;;1.90;;
12480;SDS011;6305;48.398;11.762;2022-08-21T13:51:45;2.47;;;2.28;;
12480;SDS011;6305;48.398;11.762;2022-08-21T13:54:15;3.13;;;2.40;;
12480;SDS011;6305;48.398;11.762;2022-08-21T13:56:46;3.55;;;2.40;;
12480;SDS011;6305;48.398;11.762;2022-08-21T13:59:22;2.45;;;2.25;;
12480;SDS011;6305;48.398;11.762;2022-08-21T14:01:52;2.42;;;2.22;;
12480;SDS011;6305;48.398;11.762;2022-08-21T14:04:24;2.42;;;2.22;;
12480;SDS011;6305;48.398;11.762;2022-08-21T14:06:56;2.70;;;2.08;;
12480;SDS011;6305;48.398;11.762;2022-08-21T14:09:25;3.00;;;2.30;;
12480;SDS011;6305;48.398;11.762;2022-08-21T14:11:55;2.53;;;2.33;;
12480;SDS011;6305;48.398;11.762;2022-08-21T14:14:24;2.35;;;2.13;;
12480;SDS011;6305;48.398;11.762;2022-08-21T14:16:53;3.72;;;2.45;;
12480;SDS011;6305;48.398;11.762;2022-08-21T14:19:23;2.38;;;1.98;;
12480;SDS011;6305;48.398;11.762;2022-08-21T14:21:52;2.50;;;2.20;;
12480;SDS011;6305;48.398;11.762;2022-08-21T14:24:28;4.07;;;2.33;;
12480;SDS011;6305;48.398;11.762;2022-08-21T14:26:56;2.38;;;2.17;;
12480;SDS011;6305;48.398;11.762;2022-08-21T14:29:27;2.50;;;2.30;;
12480;SDS011;6305;48.398;11.762;2022-08-21T14:31:59;2.38;;;2.17;;
12480;SDS011;6305;48.398;11.762;2022-08-21T14:34:34;2.50;;;2.30;;
12480;SDS011;6305;48.398;11.762;2022-08-21T14:37:00;3.00;;;2.47;;
12480;SDS011;6305;48.398;11.762;2022-08-21T14:39:28;2.70;;;2.50;;
12480;SDS011;6305;48.398;11.762;2022-08-21T14:41:55;2.75;;;2.55;;
12480;SDS011;6305;48.398;11.762;2022-08-21T14:44:23;3.00;;;2.10;;
12480;SDS011;6305;48.398;11.762;2022-08-21T14:46:50;3.53;;;2.30;;
12480;SDS011;6305;48.398;11.762;2022-08-21T14:49:17;3.30;;;2.33;;
12480;SDS011;6305;48.398;11.762;2022-08-21T14:51:43;2.70;;;2.50;;
12480;SDS011;6305;48.398;11.762;2022-08-21T14:54:10;2.50;;;2.30;;
12480;SDS011;6305;48.398;11.762;2022-08-21T14:56:38;2.88;;;2.42;;